Historyczne dane pomiarowe

Dodano dane terminowe – wersja testowa.

Dane z okresu 1951-2019

Wersja bazy: 1.34 [2019-03-16, lista zmian], aktualizacja planowana na 2019-04-15

Dane meteo z obszaru Polski uzyskane na podstawie danych udostępnionych przez Instytut Meteorologii i Gospodarki Wodnej – Państwowy Instytut Badawczy.

 

Wybierz Datę:    

       

TemperaturaWilgotnośćWiatrCiśnienieOpadyŚniegCzas trwania zjawisk
 Stacja t tx tn tng RH VA  wxwx mslp ppp RRR   cm mm wxwxwxwxwxwxwx
1973-04-17 -5.6 -3.7 -6.6- 81.5 3.3 6.1 5.0 0.0 0.0- 795.4 1.3 0.3 1.0200 2.8 5.0- 6.6- 8.0---
1973-04-18 -8.7 -5.7 -9.5- 87.8 2.7 5.6 5.5 0.0 0.0- 788.9 0.8 0.8 0.0200 2.7 3.8- 6.6- 6.5---
1973-04-19 -7.7 -5.6-10.0- 88.9 3.0 6.4 10.8 14.3 0.0- 786.0 2.7 2.7 0.0190 2.7 1.5- 5.4- 10.9---
1973-04-20 -3.8 -2.7 -6.4- 90.9 4.2 7.8 5.6 4.0 0.0- 784.4 12.3 8.0 4.3180 2.7 0.0- 18.3- 16.5---
1973-04-21 -4.7 -2.2 -6.5- 92.9 4.0 7.6 9.0 10.6 3.3- 783.2 10.1 9.0 1.1185 2.9 1.4- 17.2- 12.8---
1973-04-22 -4.9 -0.9 -7.5- 90.4 3.9 4.9 2.8 0.0 0.0- 789.7 1.5 1.5 0.0188 3.0 6.3- 2.5- 15.3---
1973-04-23 -3.3 0.8 -5.9- 84.6 4.0 2.4 3.3 0.0 0.0- 795.3 0.0 0.0 0.0180 2.9 11.3--- 3.3- 4.5-
1973-04-24 -2.1 0.9 -4.1- 80.8 4.2 6.3 4.4 0.0 0.0- 792.1 0.0 0.0 0.0175 3.1 3.9--- 1.5- 6.5-
1973-04-25 -2.7 -1.8 -3.8- 94.8 4.7 7.3 7.8 0.0 0.0- 790.0 17.8 6.9 10.9170 3.6 0.0 11.8 3.7 2.6 23.5---
1973-04-26 -5.2 -2.8 -6.7- 92.8 3.9 6.5 5.9 0.0 0.0- 793.9 0.5 0.5 0.0172 3.4 2.9 5.3 3.3 0.8 13.3---
1973-04-27 -4.3 -1.7 -7.1- 85.4 3.8 3.6 2.5 0.0 0.0- 796.5 0.0 0.0 0.0167 3.5 3.4- 0.3-----
1973-04-28 -2.1 -0.1 -4.3- 93.6 4.9 5.8 11.1 18.1 0.0- 794.5 0.1 0.1 0.0165 2.2 2.8- 0.9- 9.3---
1973-04-29 0.4 1.3 -0.6- 99.0 6.2 7.4 14.5 21.9 10.3- 792.1 5.8 0.0 5.8155 3.1 0.0 2.3-- 19.4---
1973-04-30 1.9 3.8 0.0- 99.4 7.0 7.0 5.0 2.8 0.0- 799.7 0.0 0.0 0.0150 4.0 3.4 0.2 0.8 0.3 16.6---
1973-05-01 3.6 5.6 1.5- 84.1 6.6 5.0 14.3 24.0 6.9- 802.2 0.0 0.0 0.0135 3.9 10.4--- 4.2---
1973-05-02 6.3 9.5 3.5- 79.3 7.5 4.0 12.6 11.3 8.9- 800.2 0.0 0.0 0.0123 4.1 11.6-------
1973-05-03 6.7 9.6 4.7- 82.5 8.0 5.8 5.5 2.7 0.0- 797.4 3.9 0.0 3.9100 4.1 9.3 3.2-- 1.3-- 1.5
1973-05-04 5.8 8.0 3.1- 72.1 6.7 1.4 3.1 0.2 0.0- 801.1 0.0 0.0 0.0 95 4.3 14.1-------
1973-05-05 9.2 12.3 6.0- 59.4 6.9 4.8 7.3 10.3 0.0- 805.7 0.0 0.0 0.0 75 4.8 11.8-------
1973-05-06 11.6 16.1 7.5- 71.3 9.5 5.6 8.3 10.2 0.0- 803.9 10.5 0.0 10.5 62 4.9 7.0 0.3------
1973-05-07 5.6 10.3 2.3- 90.3 8.3 6.1 12.6 21.3 4.9- 798.6 2.4 2.4 0.0 55 5.3 4.6 7.3-- 5.4---
1973-05-08 3.0 5.6 1.7- 84.3 6.4 5.1 10.5 16.0 0.0- 797.9 0.0 0.0 0.0 51 5.2 6.6 0.1-- 7.5---
1973-05-09 -2.4 2.1 -4.8- 95.3 4.9 6.0 4.1 0.0 0.0- 798.5 3.9 3.7 0.2 45 3.9 1.8- 8.8 0.7 15.8- 2.8-
1973-05-10 -2.9 -1.4 -4.5- 95.4 4.7 7.9 8.6 7.3 0.0- 796.8 6.3 0.0 6.3 40 5.3 0.4- 0.8- 22.0---
1973-05-11 -1.4 -0.2 -2.3- 98.9 5.5 8.0 12.4 23.5 0.0- 794.6 9.5 1.0 8.5 43 5.3 0.0 4.8 10.3- 24.0---
1973-05-12 -4.4 -0.2 -5.2- 93.9 4.1 6.1 6.6 0.0 0.0- 800.5 3.5 3.5 0.0 45 5.1 4.1- 4.1- 13.8---
1973-05-13 -3.0 -0.6 -5.9- 93.9 4.6 5.4 3.0 0.0 0.0- 803.4 0.0 0.0 0.0 45 5.1 5.2- 0.4- 2.5- 3.0-
1973-05-14 1.6 5.1 -1.3- 78.6 5.3 4.0 8.5 8.2 0.0- 803.6 0.0 0.0 0.0 43 5.0 10.2----- 3.0-
1973-05-15 -0.5 2.8 -3.3- 91.4 5.4 7.6 9.5 9.8 0.0- 799.6 2.2 1.7 0.5 38 5.5 1.5- 2.0 1.9 15.3---
1973-05-16 -5.5 -2.8 -7.1- 92.3 3.8 7.3 4.6 0.0 0.0- 799.2 1.3 0.1 1.2 36 6.9 2.3- 5.1- 23.5---
163.2 ms

 

Źródłem pochodzenia danych jest Instytut Meteorologii i Gospodarki Wodnej – Państwowy Instytut Badawczy. Dane Instytutu Meteorologii i Gospodarki Wodnej – Państwowego Instytutu Badawczego zostały przetworzone.

Dane źródłowe można odnaleźć na stronie https://dane.imgw.pl